WXM80 ListenWXM80 Stop

You find our weather info also at:

UK Metoffice

WeatherCloud

Weather Underground

Northeastern Weather Network

AWEKAS

Citizen Weather Observer Program (CWOP)

HAMweather, WeatherForYou, PWS Weather


Weather Underground History page Text

Daily Summary for September 20, 2017 Units:  English    Metric   Both
« Previous Day
Next Day »
Daily Weekly Monthly Yearly Custom
  High: Low: Average:
Temperature: 76.8 °F 70.1 °F 73.4 °F
Dew Point: 70.1 °F 66.6 °F 68.2 °F
Humidity: 91 % 77 % 84 %
Wind Speed: 12.0 mph 0.2 mph 6.2 mph
Wind Gust: 20.0 mph - -
Wind:- - ENE
Pressure: 29.85 in 29.73 in -
Precipitation: 0.00 in    
Historical Graphs
 
 
Tabular Data for September 20, 2017
Time Temperature Dew Point Pressure Wind Wind Speed Wind Gust Humidity Rainfall Rate (Hourly)
00:03 70.7 °F 67.3 °F 29.79 in NNE 6.8 mph 12.7 mph 89 % 0.00 in
00:08 70.7 °F 67.3 °F 29.78 in ENE 9.6 mph 11.5 mph 89 % 0.00 in
00:13 70.7 °F 67.6 °F 29.78 in ENE 5.5 mph 11.5 mph 90 % 0.00 in
00:18 70.7 °F 67.6 °F 29.79 in NNE 7.0 mph 15.0 mph 90 % 0.00 in
00:23 70.7 °F 67.3 °F 29.78 in NE 9.3 mph 16.1 mph 89 % 0.00 in
00:28 70.7 °F 67.3 °F 29.78 in NNE 6.5 mph 11.5 mph 89 % 0.00 in
00:33 70.7 °F 67.6 °F 29.78 in NNE 8.5 mph 15.0 mph 90 % 0.00 in
00:38 70.7 °F 67.3 °F 29.78 in NNE 7.2 mph 11.5 mph 89 % 0.00 in
00:43 70.7 °F 67.3 °F 29.78 in NE 5.9 mph 16.1 mph 89 % 0.00 in
00:48 70.7 °F 67.3 °F 29.78 in NNE 4.6 mph 7.0 mph 89 % 0.00 in
00:53 70.7 °F 67.3 °F 29.78 in ENE 5.7 mph 12.0 mph 89 % 0.00 in
00:58 70.8 °F 67.4 °F 29.78 in NE 6.4 mph 9.2 mph 89 % 0.00 in
01:03 70.8 °F 67.4 °F 29.78 in NNE 6.8 mph 13.8 mph 89 % 0.00 in
01:08 70.8 °F 67.4 °F 29.77 in NNE 7.0 mph 11.5 mph 89 % 0.00 in
01:13 70.8 °F 67.4 °F 29.77 in NE 8.6 mph 16.1 mph 89 % 0.00 in
01:18 70.9 °F 67.5 °F 29.77 in NNE 6.2 mph 11.5 mph 89 % 0.00 in
01:23 70.9 °F 67.5 °F 29.77 in NE 6.8 mph 11.5 mph 89 % 0.00 in
01:28 71.0 °F 67.6 °F 29.77 in NE 8.3 mph 15.0 mph 89 % 0.00 in
01:33 71.0 °F 67.6 °F 29.77 in NNE 6.5 mph 10.4 mph 89 % 0.00 in
01:39 71.0 °F 67.6 °F 29.77 in NE 9.4 mph 16.1 mph 89 % 0.00 in
01:44 71.1 °F 67.7 °F 29.77 in ENE 8.9 mph 17.3 mph 89 % 0.00 in
01:49 71.1 °F 67.7 °F 29.77 in NE 9.2 mph 15.0 mph 89 % 0.00 in
01:54 71.1 °F 67.7 °F 29.77 in NE 8.0 mph 15.0 mph 89 % 0.00 in
01:59 71.1 °F 67.7 °F 29.77 in North 9.3 mph 18.4 mph 89 % 0.00 in
02:04 71.1 °F 67.7 °F 29.77 in ENE 6.6 mph 12.7 mph 89 % 0.00 in
02:09 71.1 °F 67.7 °F 29.77 in ENE 6.4 mph 12.7 mph 89 % 0.00 in
02:14 71.1 °F 67.7 °F 29.77 in NE 6.5 mph 15.0 mph 89 % 0.00 in
02:19 71.1 °F 67.7 °F 29.76 in North 7.9 mph 12.7 mph 89 % 0.00 in
02:24 71.1 °F 67.7 °F 29.76 in NNE 5.4 mph 13.8 mph 89 % 0.00 in
02:29 71.1 °F 67.7 °F 29.75 in NE 6.7 mph 19.6 mph 89 % 0.00 in
02:34 71.1 °F 67.7 °F 29.75 in North 7.9 mph 16.0 mph 89 % 0.00 in
02:39 71.1 °F 67.7 °F 29.75 in NNE 11.3 mph 19.6 mph 89 % 0.00 in
02:44 71.0 °F 67.3 °F 29.74 in NNE 7.4 mph 16.1 mph 88 % 0.00 in
02:49 71.0 °F 67.3 °F 29.74 in NNE 6.7 mph 11.5 mph 88 % 0.00 in
02:54 71.0 °F 67.6 °F 29.74 in North 5.9 mph 11.5 mph 89 % 0.00 in
02:59 71.0 °F 67.6 °F 29.74 in NNE 7.1 mph 12.7 mph 89 % 0.00 in
03:04 70.9 °F 67.5 °F 29.74 in East 11.3 mph 16.1 mph 89 % 0.00 in
03:09 70.9 °F 67.2 °F 29.73 in NNW 9.2 mph 19.6 mph 88 % 0.00 in
03:14 70.9 °F 67.2 °F 29.73 in NE 9.0 mph 18.4 mph 88 % 0.00 in
03:20 70.9 °F 67.2 °F 29.73 in NNE 9.2 mph 16.0 mph 88 % 0.00 in
03:25 70.9 °F 67.5 °F 29.73 in North 8.3 mph 16.1 mph 89 % 0.00 in
03:30 70.9 °F 67.5 °F 29.73 in North 7.1 mph 16.1 mph 89 % 0.00 in
03:35 70.9 °F 67.5 °F 29.73 in NE 10.0 mph 19.6 mph 89 % 0.00 in
03:40 70.9 °F 67.5 °F 29.73 in NE 6.7 mph 13.8 mph 89 % 0.00 in
03:45 70.9 °F 67.2 °F 29.73 in ENE 10.5 mph 18.4 mph 88 % 0.00 in
03:50 70.9 °F 67.5 °F 29.73 in NNE 5.2 mph 11.5 mph 89 % 0.00 in
03:55 70.8 °F 67.4 °F 29.73 in North 6.6 mph 8.1 mph 89 % 0.00 in
04:00 70.8 °F 67.4 °F 29.74 in NNE 5.2 mph 10.4 mph 89 % 0.00 in
04:05 70.8 °F 67.4 °F 29.73 in ENE 9.9 mph 16.1 mph 89 % 0.00 in
04:10 70.8 °F 67.4 °F 29.73 in NNE 9.7 mph 17.3 mph 89 % 0.00 in
04:15 70.8 °F 67.4 °F 29.74 in ENE 6.2 mph 11.5 mph 89 % 0.00 in
04:20 70.7 °F 67.3 °F 29.74 in NNE 6.2 mph 9.2 mph 89 % 0.00 in
04:25 70.7 °F 67.3 °F 29.74 in NE 6.3 mph 12.0 mph 89 % 0.00 in
04:30 70.6 °F 67.5 °F 29.74 in ENE 6.1 mph 9.2 mph 90 % 0.00 in
04:35 70.5 °F 67.4 °F 29.74 in East 11.1 mph 19.0 mph 90 % 0.00 in
04:40 70.4 °F 67.3 °F 29.74 in North 7.1 mph 12.0 mph 90 % 0.00 in
04:45 70.3 °F 67.2 °F 29.74 in NE 7.9 mph 16.1 mph 90 % 0.00 in
04:50 70.2 °F 67.1 °F 29.74 in ENE 6.9 mph 9.0 mph 90 % 0.00 in
04:55 70.2 °F 67.4 °F 29.74 in NNE 7.7 mph 11.5 mph 91 % 0.00 in
05:01 70.2 °F 67.4 °F 29.74 in NE 5.1 mph 8.1 mph 91 % 0.00 in
05:06 70.2 °F 67.4 °F 29.74 in North 6.7 mph 12.7 mph 91 % 0.00 in
05:11 70.1 °F 67.4 °F 29.73 in NE 7.0 mph 16.0 mph 91 % 0.00 in
05:16 70.2 °F 67.4 °F 29.73 in NE 9.0 mph 20.0 mph 91 % 0.00 in
05:21 70.2 °F 67.4 °F 29.74 in NE 7.0 mph 15.0 mph 91 % 0.00 in
05:26 70.3 °F 67.5 °F 29.74 in NE 5.0 mph 14.0 mph 91 % 0.00 in
05:31 70.3 °F 67.5 °F 29.74 in NE 5.0 mph 13.0 mph 91 % 0.00 in
05:35 70.3 °F 67.5 °F 29.74 in NNE 4.6 mph 9.2 mph 91 % 0.00 in
05:40 70.3 °F 67.5 °F 29.74 in NNE 7.0 mph 11.5 mph 91 % 0.00 in
05:45 70.3 °F 67.5 °F 29.74 in NE 7.6 mph 13.0 mph 91 % 0.00 in
05:50 70.4 °F 67.6 °F 29.74 in NE 5.8 mph 17.3 mph 91 % 0.00 in
05:53 70.4 °F 67.6 °F 29.74 in NNE 6.9 mph 12.7 mph 91 % 0.00 in
05:58 70.4 °F 67.3 °F 29.74 in NNE 6.2 mph 10.4 mph 90 % 0.00 in
06:03 70.6 °F 67.5 °F 29.74 in NE 6.7 mph 18.4 mph 90 % 0.00 in
06:08 70.6 °F 67.5 °F 29.75 in NNE 7.5 mph 11.5 mph 90 % 0.00 in
06:13 70.7 °F 67.6 °F 29.75 in North 7.5 mph 18.4 mph 90 % 0.00 in
06:18 70.8 °F 67.7 °F 29.75 in NNE 7.9 mph 13.8 mph 90 % 0.00 in
06:23 70.9 °F 67.5 °F 29.75 in NE 6.2 mph 11.5 mph 89 % 0.00 in
06:28 71.0 °F 67.6 °F 29.75 in North 7.2 mph 12.7 mph 89 % 0.00 in
06:34 71.0 °F 67.6 °F 29.75 in North 11.7 mph 19.0 mph 89 % 0.00 in
06:39 71.1 °F 67.7 °F 29.75 in North 10.2 mph 15.0 mph 89 % 0.00 in
06:44 71.2 °F 67.8 °F 29.75 in NNE 11.2 mph 17.3 mph 89 % 0.00 in
06:49 71.2 °F 67.8 °F 29.75 in ENE 8.7 mph 16.1 mph 89 % 0.00 in
06:54 71.3 °F 67.9 °F 29.75 in North 8.8 mph 16.1 mph 89 % 0.00 in
06:59 71.3 °F 67.9 °F 29.75 in NNE 6.5 mph 13.8 mph 89 % 0.00 in
07:04 71.3 °F 67.9 °F 29.75 in NE 10.9 mph 16.1 mph 89 % 0.00 in
07:09 71.3 °F 67.6 °F 29.76 in NE 9.1 mph 18.4 mph 88 % 0.00 in
07:14 71.4 °F 67.7 °F 29.76 in NNE 9.4 mph 19.6 mph 88 % 0.00 in
07:19 71.5 °F 67.8 °F 29.76 in NE 9.2 mph 16.0 mph 88 % 0.00 in
07:24 71.5 °F 67.8 °F 29.76 in NNE 8.6 mph 15.0 mph 88 % 0.00 in
07:29 71.6 °F 67.9 °F 29.76 in NE 7.0 mph 11.5 mph 88 % 0.00 in
07:34 71.6 °F 67.9 °F 29.76 in North 10.0 mph 19.0 mph 88 % 0.00 in
07:39 71.7 °F 68.0 °F 29.76 in NE 10.6 mph 13.8 mph 88 % 0.00 in
07:44 71.7 °F 68.0 °F 29.76 in NNW 8.3 mph 11.5 mph 88 % 0.00 in
07:49 71.8 °F 68.1 °F 29.77 in NE 11.5 mph 12.7 mph 88 % 0.00 in
07:54 71.8 °F 68.1 °F 29.77 in NE 9.6 mph 16.0 mph 88 % 0.00 in
07:59 71.8 °F 68.1 °F 29.76 in North 9.7 mph 15.0 mph 88 % 0.00 in
08:04 71.9 °F 68.2 °F 29.77 in North 10.0 mph 16.0 mph 88 % 0.00 in
08:10 71.9 °F 67.8 °F 29.77 in NNE 9.7 mph 16.1 mph 87 % 0.00 in
08:15 72.0 °F 67.9 °F 29.77 in NNE 8.7 mph 11.5 mph 87 % 0.00 in
08:20 72.1 °F 68.0 °F 29.77 in NNE 7.8 mph 14.0 mph 87 % 0.00 in
08:25 72.1 °F 68.0 °F 29.77 in NNE 11.2 mph 15.0 mph 87 % 0.00 in
08:30 72.2 °F 68.1 °F 29.77 in NE 10.1 mph 12.0 mph 87 % 0.00 in
08:35 72.3 °F 68.2 °F 29.78 in NE 8.8 mph 15.0 mph 87 % 0.00 in
08:40 72.3 °F 67.9 °F 29.78 in NE 8.5 mph 14.0 mph 86 % 0.00 in
08:45 72.5 °F 68.4 °F 29.78 in NE 8.1 mph 18.0 mph 87 % 0.00 in
08:50 72.6 °F 68.2 °F 29.78 in NNE 8.4 mph 12.7 mph 86 % 0.00 in
08:55 72.6 °F 68.5 °F 29.79 in NNE 6.5 mph 14.0 mph 87 % 0.00 in
09:00 72.6 °F 68.2 °F 29.79 in North 9.1 mph 11.5 mph 86 % 0.00 in
09:06 72.7 °F 68.3 °F 29.79 in NNE 9.0 mph 15.0 mph 86 % 0.00 in
09:11 72.8 °F 68.4 °F 29.79 in NNE 7.0 mph 14.0 mph 86 % 0.00 in
09:16 72.9 °F 68.5 °F 29.79 in NNE 8.0 mph 16.0 mph 86 % 0.00 in
09:21 73.0 °F 68.6 °F 29.79 in NNE 12.0 mph 20.0 mph 86 % 0.00 in
09:26 73.1 °F 68.7 °F 29.79 in North 6.0 mph 14.0 mph 86 % 0.00 in
09:31 73.3 °F 68.9 °F 29.79 in North 6.0 mph 15.0 mph 86 % 0.00 in
09:36 73.5 °F 68.7 °F 29.79 in NNE 6.7 mph 15.0 mph 85 % 0.00 in
09:41 73.6 °F 68.8 °F 29.79 in North 8.5 mph 11.5 mph 85 % 0.00 in
09:46 73.8 °F 68.7 °F 29.79 in NNE 7.8 mph 11.5 mph 84 % 0.00 in
09:51 73.9 °F 68.8 °F 29.79 in North 7.2 mph 12.0 mph 84 % 0.00 in
09:56 73.9 °F 68.8 °F 29.79 in ENE 8.6 mph 11.5 mph 84 % 0.00 in
10:01 73.9 °F 68.8 °F 29.79 in NNE 10.3 mph 15.0 mph 84 % 0.00 in
10:06 74.0 °F 68.9 °F 29.79 in NNE 9.5 mph 13.0 mph 84 % 0.00 in
10:11 74.0 °F 68.9 °F 29.79 in NNE 8.0 mph 13.8 mph 84 % 0.00 in
10:16 74.1 °F 69.0 °F 29.79 in North 9.4 mph 11.5 mph 84 % 0.00 in
10:21 74.2 °F 69.1 °F 29.79 in NNE 8.4 mph 9.2 mph 84 % 0.00 in
10:26 74.4 °F 69.2 °F 29.78 in NNE 7.0 mph 11.5 mph 84 % 0.00 in
10:31 74.6 °F 69.1 °F 29.79 in NNE 6.7 mph 12.7 mph 83 % 0.00 in
10:37 74.8 °F 69.6 °F 29.79 in North 7.1 mph 11.5 mph 84 % 0.00 in
10:42 75.0 °F 69.8 °F 29.79 in NE 7.8 mph 10.4 mph 84 % 0.00 in
10:47 75.1 °F 69.6 °F 29.79 in NNE 7.5 mph 11.5 mph 83 % 0.00 in
10:52 75.1 °F 69.2 °F 29.79 in NNE 6.9 mph 11.5 mph 82 % 0.00 in
10:57 75.1 °F 69.2 °F 29.79 in NNE 7.7 mph 16.1 mph 82 % 0.00 in
11:02 75.1 °F 69.2 °F 29.79 in NNE 7.6 mph 12.7 mph 82 % 0.00 in
11:07 75.2 °F 69.3 °F 29.79 in North 7.1 mph 13.8 mph 82 % 0.00 in
11:12 75.3 °F 69.8 °F 29.79 in NNW 5.1 mph 9.2 mph 83 % 0.00 in
11:17 75.3 °F 69.4 °F 29.79 in NE 4.5 mph 10.0 mph 82 % 0.00 in
11:22 75.3 °F 69.4 °F 29.79 in North 5.5 mph 11.5 mph 82 % 0.00 in
11:27 75.4 °F 69.5 °F 29.79 in NNE 5.0 mph 9.0 mph 82 % 0.00 in
11:32 75.4 °F 69.9 °F 29.79 in North 5.1 mph 8.1 mph 83 % 0.00 in
11:37 75.5 °F 69.6 °F 29.79 in North 3.9 mph 10.4 mph 82 % 0.00 in
11:42 75.7 °F 69.8 °F 29.79 in North 5.2 mph 5.8 mph 82 % 0.00 in
11:47 75.8 °F 69.9 °F 29.79 in North 7.3 mph 11.5 mph 82 % 0.00 in
11:52 75.9 °F 69.6 °F 29.79 in NE 5.8 mph 11.5 mph 81 % 0.00 in
11:58 76.0 °F 70.1 °F 29.79 in NE 7.1 mph 8.1 mph 82 % 0.00 in
12:03 76.0 °F 69.7 °F 29.79 in North 6.1 mph 6.9 mph 81 % 0.00 in
12:08 76.0 °F 69.4 °F 29.79 in NNE 7.4 mph 11.5 mph 80 % 0.00 in
12:13 76.0 °F 69.4 °F 29.79 in NNE 8.9 mph 17.3 mph 80 % 0.00 in
12:18 76.0 °F 69.4 °F 29.79 in NNE 7.0 mph 11.5 mph 80 % 0.00 in
12:23 76.1 °F 69.8 °F 29.79 in NNE 5.9 mph 11.5 mph 81 % 0.00 in
12:28 76.2 °F 69.9 °F 29.80 in NNE 6.2 mph 9.2 mph 81 % 0.00 in
12:33 76.2 °F 69.9 °F 29.80 in NNE 4.3 mph 6.9 mph 81 % 0.00 in
12:38 76.1 °F 69.8 °F 29.80 in NNE 4.2 mph 9.2 mph 81 % 0.00 in
12:43 76.0 °F 69.4 °F 29.80 in NNE 5.2 mph 11.5 mph 80 % 0.00 in
12:48 75.9 °F 69.3 °F 29.80 in NE 5.9 mph 9.2 mph 80 % 0.00 in
12:53 75.8 °F 69.6 °F 29.80 in North 7.1 mph 11.5 mph 81 % 0.00 in
12:58 75.8 °F 69.2 °F 29.80 in North 6.1 mph 10.4 mph 80 % 0.00 in
13:03 75.7 °F 69.1 °F 29.80 in North 6.6 mph 11.5 mph 80 % 0.00 in
13:08 75.7 °F 69.5 °F 29.80 in North 5.8 mph 10.4 mph 81 % 0.00 in
13:13 75.8 °F 69.6 °F 29.80 in NNE 5.2 mph 10.0 mph 81 % 0.00 in
13:18 75.9 °F 69.6 °F 29.79 in NNW 6.2 mph 11.5 mph 81 % 0.00 in
13:23 76.1 °F 69.8 °F 29.79 in North 3.9 mph 7.0 mph 81 % 0.00 in
13:28 76.3 °F 70.0 °F 29.79 in NE 4.9 mph 9.2 mph 81 % 0.00 in
13:33 76.5 °F 69.9 °F 29.79 in NNW 4.5 mph 9.2 mph 80 % 0.00 in
13:38 76.7 °F 69.7 °F 29.79 in NNE 8.9 mph 13.8 mph 79 % 0.00 in
13:43 76.8 °F 69.8 °F 29.79 in NNE 4.7 mph 9.2 mph 79 % 0.00 in
13:48 76.7 °F 69.7 °F 29.79 in North 5.2 mph 8.1 mph 79 % 0.00 in
13:53 76.6 °F 69.6 °F 29.79 in North 4.3 mph 6.0 mph 79 % 0.00 in
13:58 76.5 °F 69.5 °F 29.79 in North 5.1 mph 12.0 mph 79 % 0.00 in
14:03 76.3 °F 69.3 °F 29.79 in NNE 5.9 mph 10.4 mph 79 % 0.00 in
14:08 76.2 °F 69.2 °F 29.79 in North 6.5 mph 11.5 mph 79 % 0.00 in
14:14 76.2 °F 69.6 °F 29.79 in NNE 5.7 mph 9.0 mph 80 % 0.00 in
14:19 76.1 °F 69.5 °F 29.79 in NNE 7.1 mph 10.4 mph 80 % 0.00 in
14:24 76.1 °F 69.8 °F 29.79 in NNE 6.2 mph 9.2 mph 81 % 0.00 in
14:29 76.1 °F 69.8 °F 29.78 in North 4.1 mph 11.5 mph 81 % 0.00 in
14:34 76.1 °F 69.5 °F 29.78 in NNE 5.1 mph 6.9 mph 80 % 0.00 in
14:39 76.2 °F 69.6 °F 29.78 in NE 3.8 mph 9.2 mph 80 % 0.00 in
14:44 76.3 °F 69.7 °F 29.79 in North 5.0 mph 10.0 mph 80 % 0.00 in
14:54 76.5 °F 69.9 °F 29.78 in North 5.0 mph 6.0 mph 80 % 0.00 in
14:59 76.6 °F 69.6 °F 29.78 in North 6.7 mph 11.5 mph 79 % 0.00 in
15:04 76.6 °F 69.6 °F 29.78 in North 8.5 mph 10.4 mph 79 % 0.00 in
15:09 76.6 °F 69.2 °F 29.78 in NNE 6.6 mph 13.8 mph 78 % 0.00 in
15:14 76.6 °F 69.6 °F 29.78 in NNW 3.2 mph 6.0 mph 79 % 0.00 in
15:19 76.5 °F 69.1 °F 29.79 in North 5.1 mph 9.2 mph 78 % 0.00 in
15:24 76.4 °F 69.4 °F 29.79 in North 6.8 mph 11.0 mph 79 % 0.00 in
15:29 76.3 °F 69.3 °F 29.79 in North 5.7 mph 9.2 mph 79 % 0.00 in
15:35 76.2 °F 69.2 °F 29.79 in NNE 6.1 mph 10.4 mph 79 % 0.00 in
15:40 76.1 °F 69.1 °F 29.79 in NNE 5.3 mph 9.2 mph 79 % 0.00 in
15:45 76.1 °F 69.1 °F 29.80 in NNE 5.8 mph 9.2 mph 79 % 0.00 in
15:50 76.0 °F 69.4 °F 29.80 in NE 4.2 mph 8.1 mph 80 % 0.00 in
15:55 75.9 °F 69.6 °F 29.79 in NNE 2.6 mph 5.8 mph 81 % 0.00 in
16:00 75.8 °F 69.2 °F 29.80 in NNE 6.7 mph 12.7 mph 80 % 0.00 in
16:05 75.7 °F 69.5 °F 29.79 in North 4.6 mph 10.0 mph 81 % 0.00 in
16:10 75.6 °F 69.0 °F 29.80 in North 6.9 mph 10.4 mph 80 % 0.00 in
16:15 75.6 °F 69.0 °F 29.80 in NNE 6.0 mph 10.4 mph 80 % 0.00 in
16:20 75.5 °F 68.9 °F 29.80 in North 6.6 mph 11.5 mph 80 % 0.00 in
16:25 75.5 °F 68.5 °F 29.80 in North 8.3 mph 13.0 mph 79 % 0.00 in
16:30 75.5 °F 68.5 °F 29.80 in NNW 5.6 mph 9.2 mph 79 % 0.00 in
16:35 75.5 °F 68.9 °F 29.80 in NNE 7.4 mph 11.5 mph 80 % 0.00 in
16:40 75.5 °F 68.9 °F 29.80 in North 6.8 mph 10.4 mph 80 % 0.00 in
16:45 75.5 °F 68.9 °F 29.80 in NNW 4.4 mph 11.0 mph 80 % 0.00 in
16:50 75.6 °F 69.0 °F 29.80 in North 6.1 mph 10.4 mph 80 % 0.00 in
16:55 75.6 °F 68.6 °F 29.81 in North 9.2 mph 12.7 mph 79 % 0.00 in
17:00 75.8 °F 68.4 °F 29.80 in North 5.1 mph 10.4 mph 78 % 0.00 in
17:05 75.9 °F 68.9 °F 29.80 in NNE 5.5 mph 6.9 mph 79 % 0.00 in
17:08 76.0 °F 69.0 °F 29.80 in North 6.4 mph 9.2 mph 79 % 0.00 in
17:13 76.1 °F 68.7 °F 29.81 in NNE 7.9 mph 11.5 mph 78 % 0.00 in
17:18 76.2 °F 68.8 °F 29.81 in NNE 6.2 mph 11.5 mph 78 % 0.00 in
17:23 76.3 °F 68.9 °F 29.81 in NE 3.5 mph 8.1 mph 78 % 0.00 in
17:28 76.3 °F 68.9 °F 29.81 in NNE 2.6 mph 4.6 mph 78 % 0.00 in
17:33 76.3 °F 68.9 °F 29.82 in NNE 5.5 mph 10.4 mph 78 % 0.00 in
17:38 76.2 °F 68.8 °F 29.82 in NNE 3.5 mph 8.1 mph 78 % 0.00 in
17:43 76.0 °F 68.6 °F 29.82 in NNE 2.8 mph 4.6 mph 78 % 0.00 in
17:48 75.9 °F 68.5 °F 29.82 in NNE 4.6 mph 6.9 mph 78 % 0.00 in
17:53 75.9 °F 68.9 °F 29.82 in North 1.6 mph 4.6 mph 79 % 0.00 in
17:58 75.8 °F 68.8 °F 29.82 in NW 0.2 mph 2.3 mph 79 % 0.00 in
18:03 75.8 °F 68.8 °F 29.82 in NNE 4.3 mph 7.0 mph 79 % 0.00 in
18:09 75.7 °F 69.1 °F 29.82 in NNE 4.8 mph 6.9 mph 80 % 0.00 in
18:14 75.5 °F 68.5 °F 29.82 in NNE 4.2 mph 8.1 mph 79 % 0.00 in
18:19 75.5 °F 68.9 °F 29.82 in NNE 3.9 mph 6.9 mph 80 % 0.00 in
18:24 75.4 °F 68.4 °F 29.82 in North 6.6 mph 10.4 mph 79 % 0.00 in
18:29 75.3 °F 68.0 °F 29.82 in North 5.2 mph 11.5 mph 78 % 0.00 in
18:34 75.4 °F 68.1 °F 29.82 in NNE 4.5 mph 8.0 mph 78 % 0.00 in
18:39 75.3 °F 68.0 °F 29.82 in NNE 7.3 mph 11.5 mph 78 % 0.00 in
18:44 75.4 °F 67.7 °F 29.82 in NNE 2.2 mph 5.8 mph 77 % 0.00 in
18:49 75.4 °F 67.7 °F 29.82 in NE 4.1 mph 6.9 mph 77 % 0.00 in
18:54 75.4 °F 68.1 °F 29.82 in North 6.3 mph 9.0 mph 78 % 0.00 in
18:59 75.4 °F 68.1 °F 29.82 in NNE 3.7 mph 6.9 mph 78 % 0.00 in
19:04 75.3 °F 68.0 °F 29.82 in NW 3.5 mph 4.6 mph 78 % 0.00 in
19:09 75.3 °F 68.0 °F 29.83 in NNE 4.8 mph 6.9 mph 78 % 0.00 in
19:14 75.2 °F 67.9 °F 29.83 in North 2.6 mph 9.2 mph 78 % 0.00 in
19:19 75.1 °F 67.8 °F 29.83 in NW 4.1 mph 6.9 mph 78 % 0.00 in
19:24 75.0 °F 67.7 °F 29.83 in NNE 3.8 mph 11.5 mph 78 % 0.00 in
19:29 75.0 °F 67.7 °F 29.83 in North 4.7 mph 6.9 mph 78 % 0.00 in
19:34 74.9 °F 67.6 °F 29.83 in NNE 3.6 mph 8.1 mph 78 % 0.00 in
19:35 74.9 °F 67.6 °F 29.83 in NNE 5.0 mph 8.1 mph 78 % 0.00 in
19:40 74.8 °F 67.5 °F 29.83 in North 3.7 mph 7.0 mph 78 % 0.00 in
19:45 74.7 °F 67.4 °F 29.83 in NNE 5.1 mph 8.1 mph 78 % 0.00 in
19:50 74.7 °F 67.8 °F 29.83 in North 3.2 mph 8.1 mph 79 % 0.00 in
19:56 74.6 °F 67.7 °F 29.83 in NNE 2.3 mph 6.0 mph 79 % 0.00 in
20:01 74.5 °F 67.6 °F 29.83 in NNE 2.9 mph 5.8 mph 79 % 0.00 in
20:06 74.4 °F 67.5 °F 29.83 in NNE 3.8 mph 6.9 mph 79 % 0.00 in
20:11 74.3 °F 67.7 °F 29.83 in NNE 4.5 mph 6.0 mph 80 % 0.00 in
20:16 74.2 °F 67.6 °F 29.83 in NNE 3.2 mph 4.6 mph 80 % 0.00 in
20:21 74.1 °F 67.5 °F 29.83 in North 4.6 mph 5.8 mph 80 % 0.00 in
20:26 74.0 °F 67.4 °F 29.83 in North 2.9 mph 3.5 mph 80 % 0.00 in
20:31 73.9 °F 67.3 °F 29.83 in North 3.3 mph 5.8 mph 80 % 0.00 in
20:36 73.8 °F 67.6 °F 29.83 in North 2.2 mph 4.6 mph 81 % 0.00 in
20:41 73.8 °F 67.6 °F 29.83 in NNW 3.4 mph 6.0 mph 81 % 0.00 in
20:46 73.7 °F 67.5 °F 29.83 in NNE 3.5 mph 5.8 mph 81 % 0.00 in
20:51 73.6 °F 67.4 °F 29.83 in North 3.1 mph 4.6 mph 81 % 0.00 in
20:56 73.5 °F 67.3 °F 29.84 in NNE 5.7 mph 8.1 mph 81 % 0.00 in
21:01 73.5 °F 66.9 °F 29.83 in NNE 5.2 mph 9.0 mph 80 % 0.00 in
21:02 73.4 °F 66.9 °F 29.84 in NNE 6.1 mph 9.2 mph 80 % 0.00 in
21:07 73.5 °F 66.9 °F 29.84 in NE 3.8 mph 5.8 mph 80 % 0.00 in
21:12 73.5 °F 66.9 °F 29.84 in NE 3.4 mph 5.0 mph 80 % 0.00 in
21:17 73.5 °F 67.3 °F 29.84 in NNE 0.3 mph 3.5 mph 81 % 0.00 in
21:22 73.5 °F 67.3 °F 29.84 in NNE 4.8 mph 8.0 mph 81 % 0.00 in
21:28 73.4 °F 67.2 °F 29.84 in NNE 2.8 mph 5.8 mph 81 % 0.00 in
21:33 73.4 °F 66.9 °F 29.85 in NNE 3.8 mph 10.4 mph 80 % 0.00 in
21:38 73.3 °F 66.8 °F 29.85 in North 4.4 mph 9.2 mph 80 % 0.00 in
21:43 73.3 °F 67.1 °F 29.84 in North 3.8 mph 5.8 mph 81 % 0.00 in
21:48 73.3 °F 67.1 °F 29.84 in NNW 2.2 mph 5.8 mph 81 % 0.00 in
21:53 73.3 °F 67.1 °F 29.84 in North 2.9 mph 4.6 mph 81 % 0.00 in
21:58 73.3 °F 66.8 °F 29.84 in NNW 3.9 mph 8.1 mph 80 % 0.00 in
22:03 73.2 °F 67.0 °F 29.85 in NNE 3.0 mph 7.0 mph 81 % 0.00 in
22:08 73.2 °F 66.7 °F 29.84 in North 4.7 mph 6.9 mph 80 % 0.00 in
22:13 73.2 °F 67.0 °F 29.84 in NNW 2.8 mph 4.6 mph 81 % 0.00 in
22:18 73.2 °F 67.0 °F 29.84 in NNW 4.8 mph 8.0 mph 81 % 0.00 in
22:23 73.2 °F 67.0 °F 29.84 in NNE 2.7 mph 5.8 mph 81 % 0.00 in
22:28 73.1 °F 66.6 °F 29.84 in NNE 5.1 mph 8.1 mph 80 % 0.00 in
22:33 73.1 °F 66.9 °F 29.84 in NNE 4.5 mph 6.9 mph 81 % 0.00 in
22:38 73.2 °F 67.0 °F 29.84 in NNE 1.8 mph 3.5 mph 81 % 0.00 in
22:43 73.1 °F 66.9 °F 29.84 in North 6.2 mph 9.2 mph 81 % 0.00 in
22:48 73.1 °F 66.9 °F 29.84 in NNE 4.2 mph 6.9 mph 81 % 0.00 in
22:53 73.1 °F 66.9 °F 29.84 in NNE 4.1 mph 6.9 mph 81 % 0.00 in
22:58 73.2 °F 67.0 °F 29.84 in NNW 0.7 mph 4.6 mph 81 % 0.00 in
23:03 73.2 °F 67.4 °F 29.84 in NE 1.3 mph 3.5 mph 82 % 0.00 in
23:08 73.1 °F 67.3 °F 29.85 in North 3.4 mph 5.8 mph 82 % 0.00 in
23:13 73.1 °F 67.3 °F 29.84 in North 3.7 mph 6.9 mph 82 % 0.00 in
23:18 73.0 °F 67.2 °F 29.85 in NNE 3.4 mph 8.1 mph 82 % 0.00 in
23:20 73.0 °F 67.2 °F 29.84 in NNE 2.4 mph 3.5 mph 82 % 0.00 in
23:22 73.0 °F 67.2 °F 29.85 in NNE 4.0 mph 5.8 mph 82 % 0.00 in
23:27 73.0 °F 67.2 °F 29.85 in North 3.4 mph 6.9 mph 82 % 0.00 in
23:30 73.0 °F 67.2 °F 29.85 in North 3.7 mph 5.8 mph 82 % 0.00 in
23:35 72.9 °F 67.1 °F 29.85 in North 6.3 mph 10.4 mph 82 % 0.00 in
23:40 72.9 °F 67.1 °F 29.85 in North 3.3 mph 6.9 mph 82 % 0.00 in
23:45 72.9 °F 67.4 °F 29.85 in North 2.9 mph 4.6 mph 83 % 0.00 in
23:50 72.9 °F 67.4 °F 29.85 in NNE 5.1 mph 10.4 mph 83 % 0.00 in
23:55 72.9 °F 67.1 °F 29.85 in NNE 3.4 mph 5.8 mph 82 % 0.00 in
Crab Meadow Weather
Compliments of Weather Underground - 3 mb

Script developed by  Jim McMurry - jmcmurry@mwt.net Adapted for the template by  Wim van der Kuil - Leuven-Template.eu

Temperature: You can tell the temperature by counting the clicks a cricket makes in 15 seconds and adding 37!